Kcmh metar

METAR KCMH 172220Z 30004KT 7SM -RA BKN038 OV

Detailed Forecast. Overnight. A chance of showers, with thunderstorms also possible after 5am. Mostly cloudy, with a low around 63. South wind around 8 mph. Chance of precipitation is 30%. New rainfall amounts between a tenth and quarter of an inch, except higher amounts possible in thunderstorms. Wednesday.KLCK - Rickenbacker International Airport (13 NM) METAR TAF KCMH - John Glenn Columbus International Airport (18 NM) METAR TAF KZZV - Zanesville Municipal Airport (37 NM) METAR TAF KILN - Wilmington Air Park Airport (56 NM) METAR TAF. 1 May 07:29 LT 3h . Valid from May 1, 2024 08:00 to May 2, 2024 08:00. Show past. Time ...KCMH METAR Weather: KCMH 011451Z 16008KT 10SM SCT110 BKN250 22/11 A2998 RMK AO2 SLP149 T02170106 58010 KCMH Flight Activity (FlightAware) KCMH Airport Info (iFlightPlanner) KCMH App/Dep (134.0) Feed Status: UP Listeners: 1 (in browser, HTML5) (launches your MP3 player) KCMH App/Dep (134.0) Audio Archives:

Did you know?

Get the latest aviation weather forecasts and observations for KCVG airport, including translated TAFs and METARs, from the Aviation Weather Center.metar; krcm : 302035z auto 15013g19kt 10sm sct085 27/13 a2977 rmk ao2 kszl 13nm e : 301955z 16015g23kt 10sm few100 few170 28/13 a2979 rmk ao2a slp085 t02750134 $ taf; kszl 13nm e :METAR Date & Time. 220136Z. The first two digits 22 refers to the day of the month. The next 4 digits 0136 refers to the time when the report was made. The Z refers to ZULU or UTC time. METAR Modifier (If any) Sometimes the METAR will have a COR or AUTO modifier after the Date & Time. COR means it is a corrected report and AUTO refers to an ...METAR KCMH 172134Z 32020G34KT 3SM R28L/5000VP6000FT -TSRA BKN055CB BKN090 OVC110 18/14 A2974 RMK AO2 PK WND 21035/2124 WSHFT 2120 LTG DSNT ALQDS RAB29 TSB26 FRQ LTGCCCG TS W-N MOV E P0000 T01830139 $. Current weather is light thunderstorms rain.The wind is from direction 320° with a speed of 20 kt. …KCMH - John Glenn Columbus International Airport (11 nm N) KLHQ - Fairfield County Airport (13 nm E) KOSU - Ohio State University Airport (17 nm NW) ... METAR; KLCK : 251855Z AUTO 00000KT 10SM CLR 13/01 A3029 RMK AO2 T01300014 KTZR 10nm NW : 251845Z 36004KT 10SM CLR 13/01 A3030 KCMHMETAR KCMH 171257Z 19013KT 5SM -RA BKN009 BKN040 OVC050 17/14 A2991 RMK AO2 LTG DSNT SW RAB55 P0000 T01720144. Current weather is light rain.The wind is from direction 190° with a speed of 13 kt. Visibility is 5 mi. The ceiling, broken or more, is 900 ft. The temperature and wind chill are 17 °C.The Columbus Airport Holiday Inn Express offers a daily breakfast with assorted hot and cold items and fresh coffee. This hotel is just 1.4 miles from the Airport Golf Course and Kelton House Museum and Garden is 9.8 miles away. The Columbus Zoo is a 30-minute drive from the hotel. Hotel.The airport is located at latitude 44.88192 and longitude -93.22197. The airport has 4 runways: 4/22, 12L/30R, 12R/30L and 17/35. The ICAO airport code of this field is KMSP. The local airport ID (FAA LID) of this airport is MSP. The airport's IATA code is MSP. The airport is in the Minneapolis FIR . This aviation weather observation was made ...Approach. 119.15 MHz. Columbus Approach. Warning: Do not use this data for real-world aviation or navigation. No guarantee of current accuracy is given. Airport information for Columbus-John Glenn Intl (KCMH) in , including runways, map, navaids, weather (METAR/TAF) and ATC frequencies. For flight simulation use only.METAR KCMH 030551Z 00000KT 10SM CLR 19/16 A3018 RMK AO2 SLP214 T01890156 10244 20183 57004. There is little or no wind from a variable direction. Visibility is 10 mi. ... (9.7 NM) METAR KLCK - Rickenbacker International Airport (11 NM) METAR TAF KTZR - Bolton Field (13 NM) METAR KLHQ - Fairfield County (18 NM) METAR. 3 October 01:51 LT 2dMETAR KCMH 172141Z 31019G27KT 1SM R28L/1200VP6000FT +TSRAGR BR BKN024CB OVC055 16/14 A2975 RMK AO2 PK WND 21035/2124 WSHFT 2120 LTG DSNT NE AND SW AND W RAB29GRB39 TSB26 FRQ LTGCCCG TS W-N MOV E P0002 T01560144 $. Current weather is heavy thunderstorms rain hail, mist.The wind is from direction 310° with a speed of 19 kt. Visibility is 1 mi. The ceiling, broken or more, is 2,400 ft. The ...METAR KCMH 181751Z 26004KT 10SM SCT250 21/08 A3006 RMK AO2 SLP175 T02060083 10206 20128 58010. The wind is from direction 260° with a speed of 4 kt. Visibility is 10 mi. No ceiling has been observed. The temperature and wind chill are 21 °C.METAR KCMH 171451Z 18011KT 7SM SCT012 BKN022 OVC042 17/16 A2988 RMK AO2 RAB1358E31 SLP113 P0005 60012 T01720161 57013 $. The wind is from direction 180° with a speed of 11 kt. Visibility is 7 mi. The ceiling, broken or more, is 2,200 ft. The temperature and wind chill are 17 °C.KCMH (CMH), John Glenn Columbus Intl: airport and runway data, TAF, METAR, Detailed and original NOTAMsAviation Weather Forecast at Columbus, OhioStation: KCMH NortDon't get trapped in a digital silo. Google TAFs. Last updated: 0935 UTC 02 Thu May 2024. KCMH 020523Z 0206/0306 VRB03KT P6SM SCT250 FM021500 18006KT P6SM SCT040 FM030100 VRB03KT P6SM SCT250. Raw and decoded Terminal Aerodrome Forecasts.METAR KCMH 172251Z 00000KT 10SM SCT050 BKN140 18/16 A2978 RMK AO2 LTG DSNT E-SW RAE26 TSE10 SLP079 TS MOV E P0022 T01830161 $. There is little or no wind from a variable direction. Visibility is 10 mi. The ceiling, broken or more, is 14,000 ft. The temperature and wind chill are 18 °C. metar kcmh 090910z 16008kt 10sm -ra bkn011 ovc METAR OMDB 040400Z 19005KT 150V290 CAVOK 29/19 Q1008 NOSIG. The wind is from direction 190° with a speed of 5 kt. The weather is CAVOK. That means there are no clouds below 5,000 ft or the MSA (minimum safe altitude), whichever is higher. This also means that no cumulonimbus or towering cumulus clouds have been observed and the visibility is 10 km or more or more. METAR KCMH 110651Z 00000KT 10SM CLR 18/17 A2995 RMK

METAR KCMH 171516Z 18011KT 10SM SCT025 BKN039 BKN080 OVC250 18/16 A2987 RMK AO2 T01830161 $. The wind is from direction 180° with a speed of 11 kt. Visibility is 10 mi. The ceiling, broken or more, is 3,900 …METAR KCMH 030851Z 00000KT 10SM CLR 16/16 A3019 RMK AO2 SLP217 T01610156 51002. There is little or no wind from a variable direction. Visibility is 10 mi. ... (9.7 NM) METAR KLCK - Rickenbacker International Airport (11 NM) METAR TAF KTZR - Bolton Field (13 NM) METAR KLHQ - Fairfield County (18 NM) METAR. 3 October 04:51 LT 2dDetailed Forecast. Overnight. A chance of showers, with thunderstorms also possible after 5am. Mostly cloudy, with a low around 63. South wind around 8 mph. Chance of precipitation is 30%. New rainfall amounts between a tenth and quarter of an inch, except higher amounts possible in thunderstorms. Wednesday.METAR Montreal / Pierre Elliott Trudeau International Airport - CYUL/YUL. Montreal / Pierre Elliott Trudeau International Airport is a large airport in Quebec, Canada. The airport is located at latitude 45.46747 and longitude -73.74361. The airport has 3 runways: 6L/24R, 6R/24L and 10/28.AWC - Aviation Weather Center is a website that provides current and forecasted weather information for pilots and aviation enthusiasts. You can find the latest METAR report for KLOT airport by clicking here, as well as other nearby stations and TAFs. A METAR is a coded observation of the weather conditions at a specific location and time.

METAR KSAN 280351Z 31004KT 10SM FEW016 FEW027 16/12 A3004 RMK AO2 SLP171 T01610122 $. 19:51. V. 16 °C. 10 mi. -. 310°. 5 kt. METAR KSAN 280251Z 31005KT 10SM FEW027 16/12 A3002 RMK AO2 SLP167 T01610122 53006 $.METAR KCMH 032151Z 10007KT 10SM FEW060 29/16 A3012 RMK AO2 SLP192 T02940161. The wind is from direction 100° with a speed of 7 kt. Visibility is 10 mi. ... (9.7 NM) METAR KLCK - Rickenbacker International Airport (11 NM) METAR TAF KTZR - Bolton Field (13 NM) METAR KLHQ - Fairfield County (18 NM) METAR. 3 October 17:51 …If you're interested in raising the GHz speed on your laptop, you probably have to overclock your processor, unless you want to buy a new processor for your laptop--and new process...…

Reader Q&A - also see RECOMMENDED ARTICLES & FAQs. KOSU METAR Weather: KOSU 301153Z 00000KT 10SM FEW042 16/14 A2994 RMK . Possible cause: METAR KCMH 172220Z 30004KT 7SM -RA BKN038 OVC065 17/16 A2977 RMK AO2 LTG .

Weather radar, wind and waves forecast for kiters, surfers, paragliders, pilots, sailors and anyone else. Worldwide animated weather map, with easy to use layers and precise spot forecast. METAR, TAF and NOTAMs for any airport in the World. SYNOP codes from weather stations and buoys. Forecast models ECMWF, GFS, NAM and NEMS. METAR Newark-Heath Airport - KVTA. Newark-Heath Airport is a midsized airport in Ohio, United States. The airport is located at latitude 40.02467 and longitude -82.46181. The airport has one runway: 9/27. The ICAO airport code of this field is KVTA. The local airport ID (FAA LID) of this airport is VTA.METAR KCMH 172141Z 31019G27KT 1SM R28L/1200VP6000FT +TSRAGR BR BKN024CB OVC055 16/14 A2975 RMK AO2 PK WND 21035/2124 WSHFT 2120 LTG DSNT NE AND SW AND W RAB29GRB39 TSB26 FRQ LTGCCCG TS W-N MOV E P0002 T01560144 $. Current weather is heavy thunderstorms rain hail, mist.The wind is from direction 310° with a speed of 19 kt. Visibility is 1 mi. The ceiling, broken or more, is 2,400 ft. The ...

METAR Orlando International Airport - KMCO/MCO. Orlando International Airport is a large airport in Florida, United States. The airport is located at latitude 28.42920 and longitude -81.30678. The airport has 4 runways: 18L/36R, 17R/35L, 17L/35R and 18R/36L.Thank you for your interest in KCMH. If you have a question about our website or about our station, check our FAQ page. If you don't find an answer, or just want to visit with us, please contact us using the information below. Contact Information: KCMH 126 South Church Street Mountain Home, AR 72653 Phone: 870-425-2525 Toll Free: 888-577-5264

METAR KCMH 172109Z 20018G35KT 10SM VCTS BKN055 BKN070 OVC090 24/14 A METAR KCMH 171451Z 18011KT 7SM SCT012 BKN022 OVC042 17/16 A2988 RMK AO2 RAB1358E31 SLP113 P0005 60012 T01720161 57013 $. The wind is from direction 180° with a speed of 11 kt. Visibility is 7 mi. The ceiling, broken or more, is 2,200 ft. The temperature and wind chill are 17 °C. METAR KCMH 040751Z 09004KT 10SM CLR 17/15 A3012 RMETAR KCMH 180251Z 29006KT 10SM FEW060 15 Apr 18, 2024 · METAR KCMH 180351Z 28005KT 10SM FEW065 14/10 A2991 RMK AO2 SLP126 T01440100 $. The wind is from direction 280° with a speed of 5 kt. Visibility is 10 mi. No ceiling has been observed. The temperature and wind chill are 14 °C. METAR KCMH 180751Z 27008KT 10SM BKN031 OVC040 13/09 A2998 RMK AO2 SLP148 T01330094 $. The wind is from direction 270° with a speed of 8 kt. Visibility is 10 mi. The ceiling, broken or more, is 3,100 ft. The temperature and wind chill are 13 °C. kcmh. cmh atis info b 0551z. 00000kt 10sm few060 03/00 a3012 (th METAR Memphis International Airport - KMEM/MEM. Memphis International Airport is a large airport in Mississippi, United States. The airport is located at latitude 35.04267 and longitude -89.97663. The airport has 4 runways: 18C/36C, 9/27, 18L/36R and 18R/36L. The ICAO airport code of this field is KMEM. METAR KCMH 111651Z 10003KT 3SM +RA BR FEW00ICAO: KCMH IATA: CMH Airport: Port Columbus InternatMETAR Columbus Air Force Base - KCBM/CBM. Col METAR KCMH 262151Z VRB05KT 10SM FEW050 14/00 A3013 RMK AO2 SLP205 T01440000. There is little or no wind from a variable direction. Visibility is 10 mi. No ceiling has been observed. The temperature and wind chill are 14 °C. Mount Carmel East Hospital Heliport 28OI · Ohio, United States. KCMH METAR Weather: KCMH 271651Z 22016G28KT 1 METAR KCMH 020851Z 00000KT 10SM CLR 16/15 A3026 RMK AO2 SLP243 T01560150 50001. There is little or no wind from a variable direction. Visibility is 10 mi. ... (9.7 NM) METAR KLCK - Rickenbacker International Airport (11 NM) METAR TAF KTZR - Bolton Field (13 NM) METAR KLHQ - Fairfield County (18 NM) METAR. 2 October 04:51 LT 3d METAR TAF : Current weather observation and F[METAR Los Angeles International Airport - KLAX/LAX. Los AngelesMETAR Cedar City Regional Airport - KCDC/CD METAR KCMH 021451Z 00000KT 10SM CLR 23/17 A3028 RMK AO2 SLP247 T02330172 51002. There is little or no wind from a variable direction. Visibility is 10 mi. ... (9.7 NM) METAR KLCK - Rickenbacker International Airport (11 NM) METAR TAF KTZR - Bolton Field (13 NM) METAR KLHQ - Fairfield County (18 NM) METAR. 2 October 10:51 LT 3dAWC - Aviation Weather Center